sensor_id;sensor_type;location;lat;lon;timestamp;pressure;altitude;pressure_sealevel;temperature;humidity
20017;BME280;10169;42.664;23.610;2023-05-23T00:01:29;95250.50;;;10.14;100.00
20017;BME280;10169;42.664;23.610;2023-05-23T00:03:31;95245.72;;;9.88;100.00
20017;BME280;10169;42.664;23.610;2023-05-23T00:05:32;95252.03;;;9.99;100.00
20017;BME280;10169;42.664;23.610;2023-05-23T00:07:32;95256.09;;;9.90;100.00
20017;BME280;10169;42.664;23.610;2023-05-23T00:09:32;95252.63;;;9.89;100.00
20017;BME280;10169;42.664;23.610;2023-05-23T00:11:33;95252.38;;;9.91;100.00
20017;BME280;10169;42.664;23.610;2023-05-23T00:13:33;95255.00;;;9.74;100.00
20017;BME280;10169;42.664;23.610;2023-05-23T00:15:34;95257.53;;;9.69;100.00
20017;BME280;10169;42.664;23.610;2023-05-23T00:17:36;95247.91;;;9.80;100.00
20017;BME280;10169;42.664;23.610;2023-05-23T00:19:37;95252.22;;;9.69;100.00
20017;BME280;10169;42.664;23.610;2023-05-23T00:21:37;95255.25;;;9.61;100.00
20017;BME280;10169;42.664;23.610;2023-05-23T00:23:37;95252.03;;;9.59;100.00
20017;BME280;10169;42.664;23.610;2023-05-23T00:25:41;95248.69;;;9.64;100.00
20017;BME280;10169;42.664;23.610;2023-05-23T00:27:41;95246.84;;;9.53;100.00
20017;BME280;10169;42.664;23.610;2023-05-23T00:29:41;95240.75;;;9.52;100.00
20017;BME280;10169;42.664;23.610;2023-05-23T00:31:42;95249.28;;;9.54;100.00
20017;BME280;10169;42.664;23.610;2023-05-23T00:33:45;95240.31;;;9.32;100.00
20017;BME280;10169;42.664;23.610;2023-05-23T00:35:45;95244.00;;;9.31;100.00
20017;BME280;10169;42.664;23.610;2023-05-23T00:37:46;95241.66;;;9.46;100.00
20017;BME280;10169;42.664;23.610;2023-05-23T00:39:49;95241.00;;;9.39;100.00
20017;BME280;10169;42.664;23.610;2023-05-23T00:41:49;95233.63;;;9.18;100.00
20017;BME280;10169;42.664;23.610;2023-05-23T00:43:50;95233.63;;;9.18;100.00
20017;BME280;10169;42.664;23.610;2023-05-23T00:45:51;95237.22;;;9.12;100.00
20017;BME280;10169;42.664;23.610;2023-05-23T00:47:51;95240.31;;;9.09;100.00
20017;BME280;10169;42.664;23.610;2023-05-23T00:49:52;95230.53;;;8.98;100.00
20017;BME280;10169;42.664;23.610;2023-05-23T00:51:52;95233.75;;;9.00;100.00
20017;BME280;10169;42.664;23.610;2023-05-23T00:53:53;95229.97;;;9.07;100.00
20017;BME280;10169;42.664;23.610;2023-05-23T00:55:53;95231.91;;;9.00;100.00
20017;BME280;10169;42.664;23.610;2023-05-23T00:57:54;95237.56;;;9.04;100.00
20017;BME280;10169;42.664;23.610;2023-05-23T00:59:57;95231.22;;;9.16;100.00
20017;BME280;10169;42.664;23.610;2023-05-23T01:01:57;95236.84;;;9.20;100.00
20017;BME280;10169;42.664;23.610;2023-05-23T01:03:59;95236.03;;;9.19;100.00
20017;BME280;10169;42.664;23.610;2023-05-23T01:06:01;95235.13;;;9.25;100.00
20017;BME280;10169;42.664;23.610;2023-05-23T01:08:02;95236.84;;;9.31;100.00
20017;BME280;10169;42.664;23.610;2023-05-23T01:10:02;95243.88;;;9.26;100.00
20017;BME280;10169;42.664;23.610;2023-05-23T01:14:23;95244.69;;;9.38;100.00
20017;BME280;10169;42.664;23.610;2023-05-23T01:16:30;95246.88;;;9.41;100.00
20017;BME280;10169;42.664;23.610;2023-05-23T01:18:33;95246.97;;;9.46;100.00
20017;BME280;10169;42.664;23.610;2023-05-23T01:20:38;95242.81;;;9.50;100.00
20017;BME280;10169;42.664;23.610;2023-05-23T01:23:04;95245.69;;;9.48;100.00
20017;BME280;10169;42.664;23.610;2023-05-23T01:25:10;95238.19;;;9.57;100.00
20017;BME280;10169;42.664;23.610;2023-05-23T01:27:16;95246.63;;;9.54;100.00
20017;BME280;10169;42.664;23.610;2023-05-23T01:29:28;95246.72;;;9.59;100.00
20017;BME280;10169;42.664;23.610;2023-05-23T01:31:31;95248.31;;;9.60;100.00
20017;BME280;10169;42.664;23.610;2023-05-23T01:33:33;95246.81;;;9.64;100.00
20017;BME280;10169;42.664;23.610;2023-05-23T01:35:34;95245.22;;;9.63;100.00
20017;BME280;10169;42.664;23.610;2023-05-23T01:37:34;95238.84;;;9.64;100.00
20017;BME280;10169;42.664;23.610;2023-05-23T01:39:35;95240.34;;;9.72;100.00
20017;BME280;10169;42.664;23.610;2023-05-23T01:41:36;95243.00;;;9.72;100.00
20017;BME280;10169;42.664;23.610;2023-05-23T01:43:36;95241.38;;;9.71;100.00
20017;BME280;10169;42.664;23.610;2023-05-23T01:45:36;95228.38;;;9.58;100.00
20017;BME280;10169;42.664;23.610;2023-05-23T01:47:37;95248.63;;;9.75;100.00
20017;BME280;10169;42.664;23.610;2023-05-23T01:49:38;95246.66;;;9.82;100.00
20017;BME280;10169;42.664;23.610;2023-05-23T01:51:40;95252.31;;;9.86;100.00
20017;BME280;10169;42.664;23.610;2023-05-23T01:53:40;95249.50;;;9.92;100.00
20017;BME280;10169;42.664;23.610;2023-05-23T01:55:41;95247.53;;;9.99;100.00
20017;BME280;10169;42.664;23.610;2023-05-23T01:57:41;95243.00;;;10.00;100.00
20017;BME280;10169;42.664;23.610;2023-05-23T01:59:43;95249.69;;;10.02;100.00
20017;BME280;10169;42.664;23.610;2023-05-23T02:01:43;95246.22;;;10.13;100.00
20017;BME280;10169;42.664;23.610;2023-05-23T02:03:43;95245.19;;;10.14;100.00
20017;BME280;10169;42.664;23.610;2023-05-23T02:05:44;95239.97;;;10.19;100.00
20017;BME280;10169;42.664;23.610;2023-05-23T02:07:44;95240.03;;;10.25;100.00
20017;BME280;10169;42.664;23.610;2023-05-23T02:09:44;95245.94;;;10.27;100.00
20017;BME280;10169;42.664;23.610;2023-05-23T02:11:44;95240.84;;;10.25;100.00
20017;BME280;10169;42.664;23.610;2023-05-23T02:13:45;95246.06;;;10.20;100.00
20017;BME280;10169;42.664;23.610;2023-05-23T02:15:45;95248.25;;;10.23;100.00
20017;BME280;10169;42.664;23.610;2023-05-23T02:17:45;95256.78;;;10.25;100.00
20017;BME280;10169;42.664;23.610;2023-05-23T02:19:47;95250.44;;;10.26;100.00
20017;BME280;10169;42.664;23.610;2023-05-23T02:21:47;95251.88;;;10.17;100.00
20017;BME280;10169;42.664;23.610;2023-05-23T02:23:47;95242.84;;;10.18;100.00
20017;BME280;10169;42.664;23.610;2023-05-23T02:25:48;95246.41;;;10.24;100.00
20017;BME280;10169;42.664;23.610;2023-05-23T02:27:48;95234.66;;;10.19;100.00
20017;BME280;10169;42.664;23.610;2023-05-23T02:29:48;95241.66;;;10.26;100.00
20017;BME280;10169;42.664;23.610;2023-05-23T02:31:48;95240.53;;;10.22;100.00
20017;BME280;10169;42.664;23.610;2023-05-23T02:33:49;95237.72;;;10.28;100.00
20017;BME280;10169;42.664;23.610;2023-05-23T02:35:50;95236.91;;;10.28;100.00
20017;BME280;10169;42.664;23.610;2023-05-23T02:37:50;95249.63;;;10.26;100.00
20017;BME280;10169;42.664;23.610;2023-05-23T02:39:50;95242.88;;;10.35;100.00
20017;BME280;10169;42.664;23.610;2023-05-23T02:41:51;95245.28;;;10.36;100.00
20017;BME280;10169;42.664;23.610;2023-05-23T02:43:51;95244.00;;;10.39;100.00
20017;BME280;10169;42.664;23.610;2023-05-23T02:45:51;95237.56;;;10.35;100.00
20017;BME280;10169;42.664;23.610;2023-05-23T02:47:51;95226.03;;;10.29;100.00
20017;BME280;10169;42.664;23.610;2023-05-23T02:49:52;95222.44;;;10.35;100.00
20017;BME280;10169;42.664;23.610;2023-05-23T02:51:52;95214.53;;;10.24;100.00
20017;BME280;10169;42.664;23.610;2023-05-23T02:53:52;95229.28;;;10.31;100.00
20017;BME280;10169;42.664;23.610;2023-05-23T02:55:53;95228.94;;;10.28;100.00
20017;BME280;10169;42.664;23.610;2023-05-23T02:57:53;95228.69;;;10.29;100.00
20017;BME280;10169;42.664;23.610;2023-05-23T02:59:53;95218.06;;;10.29;100.00
20017;BME280;10169;42.664;23.610;2023-05-23T03:01:54;95220.00;;;10.34;100.00
20017;BME280;10169;42.664;23.610;2023-05-23T03:03:54;95220.41;;;10.26;100.00
20017;BME280;10169;42.664;23.610;2023-05-23T03:05:54;95219.38;;;10.27;100.00
20017;BME280;10169;42.664;23.610;2023-05-23T03:07:55;95221.78;;;10.28;100.00
20017;BME280;10169;42.664;23.610;2023-05-23T03:09:56;95220.31;;;10.20;100.00
20017;BME280;10169;42.664;23.610;2023-05-23T03:11:57;95216.28;;;10.18;100.00
20017;BME280;10169;42.664;23.610;2023-05-23T03:13:57;95211.41;;;10.27;100.00
20017;BME280;10169;42.664;23.610;2023-05-23T03:15:57;95212.91;;;10.23;100.00
20017;BME280;10169;42.664;23.610;2023-05-23T03:17:58;95214.38;;;10.30;100.00
20017;BME280;10169;42.664;23.610;2023-05-23T03:19:58;95222.28;;;10.42;100.00
20017;BME280;10169;42.664;23.610;2023-05-23T03:21:58;95221.88;;;10.50;100.00
20017;BME280;10169;42.664;23.610;2023-05-23T03:23:59;95224.22;;;10.46;100.00
20017;BME280;10169;42.664;23.610;2023-05-23T03:25:59;95226.88;;;10.46;100.00
20017;BME280;10169;42.664;23.610;2023-05-23T03:27:59;95227.19;;;10.50;100.00
20017;BME280;10169;42.664;23.610;2023-05-23T03:29:59;95226.06;;;10.46;100.00
20017;BME280;10169;42.664;23.610;2023-05-23T03:32:00;95219.84;;;10.40;100.00
20017;BME280;10169;42.664;23.610;2023-05-23T03:34:00;95220.66;;;10.41;100.00
20017;BME280;10169;42.664;23.610;2023-05-23T03:36:01;95221.72;;;10.40;100.00
20017;BME280;10169;42.664;23.610;2023-05-23T03:38:01;95230.06;;;10.32;100.00
20017;BME280;10169;42.664;23.610;2023-05-23T03:40:01;95222.19;;;10.37;100.00
20017;BME280;10169;42.664;23.610;2023-05-23T03:42:02;95237.31;;;10.36;100.00
20017;BME280;10169;42.664;23.610;2023-05-23T03:44:03;95234.75;;;10.41;100.00
20017;BME280;10169;42.664;23.610;2023-05-23T03:46:03;95234.84;;;10.46;100.00
20017;BME280;10169;42.664;23.610;2023-05-23T03:48:03;95230.09;;;10.48;100.00
20017;BME280;10169;42.664;23.610;2023-05-23T03:50:04;95229.94;;;10.55;100.00
20017;BME280;10169;42.664;23.610;2023-05-23T03:52:04;95241.03;;;10.52;100.00
20017;BME280;10169;42.664;23.610;2023-05-23T03:54:05;95242.97;;;10.56;100.00
20017;BME280;10169;42.664;23.610;2023-05-23T03:56:05;95243.16;;;10.66;100.00
20017;BME280;10169;42.664;23.610;2023-05-23T03:58:05;95247.97;;;10.69;100.00
20017;BME280;10169;42.664;23.610;2023-05-23T04:00:06;95245.97;;;10.76;100.00
20017;BME280;10169;42.664;23.610;2023-05-23T04:02:16;95260.63;;;10.79;100.00
20017;BME280;10169;42.664;23.610;2023-05-23T04:04:16;95264.09;;;10.79;100.00
20017;BME280;10169;42.664;23.610;2023-05-23T04:06:17;95261.53;;;10.84;100.00
20017;BME280;10169;42.664;23.610;2023-05-23T04:08:19;95262.97;;;10.92;100.00
20017;BME280;10169;42.664;23.610;2023-05-23T04:10:21;95262.81;;;10.99;100.00
20017;BME280;10169;42.664;23.610;2023-05-23T04:12:21;95265.25;;;11.00;100.00
20017;BME280;10169;42.664;23.610;2023-05-23T04:14:21;95265.00;;;11.02;100.00
20017;BME280;10169;42.664;23.610;2023-05-23T04:16:23;95268.47;;;11.02;100.00
20017;BME280;10169;42.664;23.610;2023-05-23T04:18:24;95264.50;;;11.05;100.00
20017;BME280;10169;42.664;23.610;2023-05-23T04:20:25;95256.38;;;11.11;100.00
20017;BME280;10169;42.664;23.610;2023-05-23T04:22:25;95267.13;;;11.21;100.00
20017;BME280;10169;42.664;23.610;2023-05-23T04:24:25;95262.63;;;11.38;100.00
20017;BME280;10169;42.664;23.610;2023-05-23T04:26:25;95266.41;;;11.42;100.00
20017;BME280;10169;42.664;23.610;2023-05-23T04:28:26;95255.03;;;11.30;100.00
20017;BME280;10169;42.664;23.610;2023-05-23T04:30:26;95267.25;;;11.48;100.00
20017;BME280;10169;42.664;23.610;2023-05-23T04:32:29;95266.41;;;11.42;100.00
20017;BME280;10169;42.664;23.610;2023-05-23T04:34:29;95273.13;;;11.50;100.00
20017;BME280;10169;42.664;23.610;2023-05-23T04:36:32;95270.31;;;11.56;100.00
20017;BME280;10169;42.664;23.610;2023-05-23T04:38:36;95264.59;;;11.48;100.00
20017;BME280;10169;42.664;23.610;2023-05-23T04:40:40;95266.50;;;11.52;100.00
20017;BME280;10169;42.664;23.610;2023-05-23T04:42:40;95260.06;;;11.48;100.00
20017;BME280;10169;42.664;23.610;2023-05-23T04:44:43;95259.53;;;11.46;100.00
20017;BME280;10169;42.664;23.610;2023-05-23T04:46:43;95263.91;;;11.36;100.00
20017;BME280;10169;42.664;23.610;2023-05-23T04:48:44;95256.88;;;11.46;100.00
20017;BME280;10169;42.664;23.610;2023-05-23T04:50:44;95261.16;;;11.47;100.00
20017;BME280;10169;42.664;23.610;2023-05-23T04:52:46;95266.66;;;11.62;100.00
20017;BME280;10169;42.664;23.610;2023-05-23T04:54:47;95262.72;;;11.65;100.00
20017;BME280;10169;42.664;23.610;2023-05-23T04:56:47;95268.84;;;11.65;100.00
20017;BME280;10169;42.664;23.610;2023-05-23T04:58:48;95262.06;;;11.58;100.00
20017;BME280;10169;42.664;23.610;2023-05-23T05:00:48;95242.38;;;11.59;100.00
20017;BME280;10169;42.664;23.610;2023-05-23T05:02:48;95264.56;;;11.64;100.00
20017;BME280;10169;42.664;23.610;2023-05-23T05:04:48;95264.16;;;11.73;100.00
20017;BME280;10169;42.664;23.610;2023-05-23T05:06:49;95270.28;;;11.73;100.00
20017;BME280;10169;42.664;23.610;2023-05-23T05:08:49;95269.06;;;11.81;100.00
20017;BME280;10169;42.664;23.610;2023-05-23T05:10:50;95272.09;;;11.89;100.00
20017;BME280;10169;42.664;23.610;2023-05-23T05:12:50;95268.22;;;12.02;100.00
20017;BME280;10169;42.664;23.610;2023-05-23T05:14:50;95268.22;;;12.02;100.00
20017;BME280;10169;42.664;23.610;2023-05-23T05:16:51;95263.78;;;12.07;100.00
20017;BME280;10169;42.664;23.610;2023-05-23T05:18:51;95260.50;;;12.00;100.00
20017;BME280;10169;42.664;23.610;2023-05-23T05:20:51;95263.00;;;11.85;100.00
20017;BME280;10169;42.664;23.610;2023-05-23T05:22:55;95268.31;;;12.07;100.00
20017;BME280;10169;42.664;23.610;2023-05-23T05:24:58;95262.81;;;11.92;100.00
20017;BME280;10169;42.664;23.610;2023-05-23T05:26:58;95266.88;;;11.99;100.00
20017;BME280;10169;42.664;23.610;2023-05-23T05:28:59;95266.31;;;11.97;100.00
20017;BME280;10169;42.664;23.610;2023-05-23T05:30:59;95261.31;;;12.01;100.00
20017;BME280;10169;42.664;23.610;2023-05-23T05:33:04;95265.81;;;12.00;100.00
20017;BME280;10169;42.664;23.610;2023-05-23T05:35:05;95268.91;;;12.14;100.00
20017;BME280;10169;42.664;23.610;2023-05-23T05:37:07;95264.19;;;12.21;100.00
20017;BME280;10169;42.664;23.610;2023-05-23T05:39:07;95258.94;;;12.26;100.00
20017;BME280;10169;42.664;23.610;2023-05-23T05:41:08;95255.94;;;12.22;100.00
20017;BME280;10169;42.664;23.610;2023-05-23T05:43:08;95258.19;;;12.30;100.00
20017;BME280;10169;42.664;23.610;2023-05-23T05:45:09;95251.78;;;12.31;100.00
20017;BME280;10169;42.664;23.610;2023-05-23T05:47:10;95266.56;;;12.44;100.00
20017;BME280;10169;42.664;23.610;2023-05-23T05:49:12;95266.06;;;12.47;100.00
20017;BME280;10169;42.664;23.610;2023-05-23T05:51:12;95273.22;;;12.42;100.00
20017;BME280;10169;42.664;23.610;2023-05-23T05:53:12;95269.94;;;12.34;100.00
20017;BME280;10169;42.664;23.610;2023-05-23T05:55:13;95271.81;;;12.34;100.00
20017;BME280;10169;42.664;23.610;2023-05-23T05:57:13;95271.75;;;12.29;100.00
20017;BME280;10169;42.664;23.610;2023-05-23T05:59:13;95277.13;;;12.34;100.00
20017;BME280;10169;42.664;23.610;2023-05-23T06:01:14;95279.25;;;12.32;100.00
20017;BME280;10169;42.664;23.610;2023-05-23T06:03:14;95275.28;;;12.34;100.00
20017;BME280;10169;42.664;23.610;2023-05-23T06:05:15;95272.91;;;12.38;100.00
20017;BME280;10169;42.664;23.610;2023-05-23T06:07:15;95277.22;;;12.44;100.00
20017;BME280;10169;42.664;23.610;2023-05-23T06:09:15;95282.88;;;12.48;100.00
20017;BME280;10169;42.664;23.610;2023-05-23T06:11:16;95282.81;;;12.43;100.00
20017;BME280;10169;42.664;23.610;2023-05-23T06:13:16;95284.03;;;12.57;100.00
20017;BME280;10169;42.664;23.610;2023-05-23T06:15:16;95276.72;;;12.74;100.00
20017;BME280;10169;42.664;23.610;2023-05-23T06:17:17;95283.41;;;12.76;100.00
20017;BME280;10169;42.664;23.610;2023-05-23T06:19:17;95278.75;;;12.93;100.00
20017;BME280;10169;42.664;23.610;2023-05-23T06:21:17;95275.09;;;12.99;100.00
20017;BME280;10169;42.664;23.610;2023-05-23T06:23:17;95270.75;;;13.25;100.00
20017;BME280;10169;42.664;23.610;2023-05-23T06:25:18;95269.28;;;13.07;100.00
20017;BME280;10169;42.664;23.610;2023-05-23T06:27:18;95267.53;;;13.23;100.00
20017;BME280;10169;42.664;23.610;2023-05-23T06:29:18;95265.41;;;13.20;100.00
20017;BME280;10169;42.664;23.610;2023-05-23T06:31:19;95278.66;;;13.10;100.00
20017;BME280;10169;42.664;23.610;2023-05-23T06:33:19;95273.50;;;13.35;100.00
20017;BME280;10169;42.664;23.610;2023-05-23T06:35:19;95273.50;;;13.35;100.00
20017;BME280;10169;42.664;23.610;2023-05-23T06:37:20;95261.06;;;13.51;100.00
20017;BME280;10169;42.664;23.610;2023-05-23T06:39:20;95266.72;;;13.59;100.00
20017;BME280;10169;42.664;23.610;2023-05-23T06:41:20;95266.31;;;13.36;100.00
20017;BME280;10169;42.664;23.610;2023-05-23T06:43:21;95265.72;;;13.29;100.00
20017;BME280;10169;42.664;23.610;2023-05-23T06:45:21;95273.53;;;13.40;100.00
20017;BME280;10169;42.664;23.610;2023-05-23T06:47:22;95269.75;;;13.36;100.00
20017;BME280;10169;42.664;23.610;2023-05-23T06:49:22;95270.72;;;13.62;100.00
20017;BME280;10169;42.664;23.610;2023-05-23T06:51:22;95275.22;;;13.56;100.00
20017;BME280;10169;42.664;23.610;2023-05-23T06:53:23;95274.19;;;13.57;100.00
20017;BME280;10169;42.664;23.610;2023-05-23T06:55:23;95272.25;;;13.48;100.00
20017;BME280;10169;42.664;23.610;2023-05-23T06:57:23;95268.66;;;13.79;100.00
20017;BME280;10169;42.664;23.610;2023-05-23T06:59:24;95261.97;;;13.76;100.00
20017;BME280;10169;42.664;23.610;2023-05-23T07:01:25;95239.81;;;13.81;100.00
20017;BME280;10169;42.664;23.610;2023-05-23T07:03:25;95254.03;;;13.87;100.00
20017;BME280;10169;42.664;23.610;2023-05-23T07:05:26;95250.09;;;14.09;100.00
20017;BME280;10169;42.664;23.610;2023-05-23T07:07:27;95248.75;;;14.07;100.00
20017;BME280;10169;42.664;23.610;2023-05-23T07:09:27;95256.56;;;14.23;100.00
20017;BME280;10169;42.664;23.610;2023-05-23T07:11:27;95250.75;;;14.36;100.00
20017;BME280;10169;42.664;23.610;2023-05-23T07:13:28;95251.75;;;14.20;100.00
20017;BME280;10169;42.664;23.610;2023-05-23T07:15:28;95254.50;;;14.40;100.00
20017;BME280;10169;42.664;23.610;2023-05-23T07:17:28;95244.28;;;14.27;100.00
20017;BME280;10169;42.664;23.610;2023-05-23T07:19:29;95240.59;;;14.48;100.00
20017;BME280;10169;42.664;23.610;2023-05-23T07:21:29;95228.59;;;14.56;100.00
20017;BME280;10169;42.664;23.610;2023-05-23T07:23:33;95234.78;;;14.77;100.00
20017;BME280;10169;42.664;23.610;2023-05-23T07:25:33;95234.78;;;14.92;100.00
20017;BME280;10169;42.664;23.610;2023-05-23T07:27:34;95234.25;;;14.90;100.00
20017;BME280;10169;42.664;23.610;2023-05-23T07:29:34;95230.47;;;15.11;100.00
20017;BME280;10169;42.664;23.610;2023-05-23T07:31:34;95231.81;;;15.29;100.00
20017;BME280;10169;42.664;23.610;2023-05-23T07:33:35;95220.31;;;14.98;100.00
20017;BME280;10169;42.664;23.610;2023-05-23T07:35:35;95220.31;;;15.13;100.00
20017;BME280;10169;42.664;23.610;2023-05-23T07:37:35;95220.53;;;15.57;100.00
20017;BME280;10169;42.664;23.610;2023-05-23T07:39:35;95217.31;;;15.50;100.00
20017;BME280;10169;42.664;23.610;2023-05-23T07:41:36;95210.91;;;15.46;100.00
20017;BME280;10169;42.664;23.610;2023-05-23T07:43:36;95216.78;;;15.58;100.00
20017;BME280;10169;42.664;23.610;2023-05-23T07:45:36;95216.97;;;15.76;100.00
20017;BME280;10169;42.664;23.610;2023-05-23T07:47:37;95205.44;;;15.76;100.00
20017;BME280;10169;42.664;23.610;2023-05-23T07:49:37;95206.94;;;16.07;100.00
20017;BME280;10169;42.664;23.610;2023-05-23T07:51:38;95210.91;;;16.15;100.00
20017;BME280;10169;42.664;23.610;2023-05-23T07:53:38;95202.75;;;16.35;100.00
20017;BME280;10169;42.664;23.610;2023-05-23T07:55:39;95200.03;;;16.45;100.00
20017;BME280;10169;42.664;23.610;2023-05-23T07:57:40;95196.97;;;16.13;100.00
20017;BME280;10169;42.664;23.610;2023-05-23T07:59:40;95208.91;;;16.40;100.00
20017;BME280;10169;42.664;23.610;2023-05-23T08:01:41;95202.38;;;16.90;100.00
20017;BME280;10169;42.664;23.610;2023-05-23T08:03:41;95191.56;;;17.00;100.00
20017;BME280;10169;42.664;23.610;2023-05-23T08:05:41;95197.81;;;16.57;100.00
20017;BME280;10169;42.664;23.610;2023-05-23T08:07:41;95198.31;;;16.59;100.00
20017;BME280;10169;42.664;23.610;2023-05-23T08:09:42;95188.69;;;16.92;100.00
20017;BME280;10169;42.664;23.610;2023-05-23T08:11:42;95180.38;;;16.88;100.00
20017;BME280;10169;42.664;23.610;2023-05-23T08:13:42;95200.22;;;16.58;100.00
20017;BME280;10169;42.664;23.610;2023-05-23T08:15:43;95189.78;;;16.91;100.00
20017;BME280;10169;42.664;23.610;2023-05-23T08:17:43;95186.97;;;17.34;100.00
20017;BME280;10169;42.664;23.610;2023-05-23T08:19:43;95183.06;;;17.74;100.00
20017;BME280;10169;42.664;23.610;2023-05-23T08:21:44;95187.88;;;17.96;100.00
20017;BME280;10169;42.664;23.610;2023-05-23T08:23:44;95183.44;;;18.47;100.00
20017;BME280;10169;42.664;23.610;2023-05-23T08:25:45;95185.03;;;18.86;100.00
20017;BME280;10169;42.664;23.610;2023-05-23T08:27:45;95176.06;;;19.22;100.00
20017;BME280;10169;42.664;23.610;2023-05-23T08:29:45;95176.06;;;18.90;100.00
20017;BME280;10169;42.664;23.610;2023-05-23T08:31:46;95168.03;;;19.04;100.00
20017;BME280;10169;42.664;23.610;2023-05-23T08:33:47;95175.28;;;18.90;100.00
20017;BME280;10169;42.664;23.610;2023-05-23T08:35:47;95169.50;;;18.64;100.00
20017;BME280;10169;42.664;23.610;2023-05-23T08:37:47;95172.03;;;18.74;100.00
20017;BME280;10169;42.664;23.610;2023-05-23T08:39:48;95170.56;;;18.44;100.00
20017;BME280;10169;42.664;23.610;2023-05-23T08:41:49;95164.88;;;18.83;100.00
20017;BME280;10169;42.664;23.610;2023-05-23T08:43:49;95160.16;;;18.56;100.00
20017;BME280;10169;42.664;23.610;2023-05-23T08:45:50;95159.72;;;18.87;100.00
20017;BME280;10169;42.664;23.610;2023-05-23T08:47:51;95166.19;;;19.18;100.00
20017;BME280;10169;42.664;23.610;2023-05-23T08:49:51;95155.19;;;19.28;100.00
20017;BME280;10169;42.664;23.610;2023-05-23T08:51:54;95160.41;;;19.24;100.00
20017;BME280;10169;42.664;23.610;2023-05-23T08:53:56;95155.25;;;19.55;100.00
20017;BME280;10169;42.664;23.610;2023-05-23T08:56:00;95153.47;;;19.91;100.00
20017;BME280;10169;42.664;23.610;2023-05-23T08:58:02;95156.56;;;19.98;100.00
20017;BME280;10169;42.664;23.610;2023-05-23T09:00:02;95164.75;;;19.80;100.00
20017;BME280;10169;42.664;23.610;2023-05-23T09:02:09;95154.84;;;20.02;100.00
20017;BME280;10169;42.664;23.610;2023-05-23T09:04:13;95154.38;;;19.87;100.00
20017;BME280;10169;42.664;23.610;2023-05-23T09:06:13;95153.47;;;19.91;100.00
20017;BME280;10169;42.664;23.610;2023-05-23T09:08:14;95148.94;;;20.14;100.00
20017;BME280;10169;42.664;23.610;2023-05-23T09:10:14;95145.69;;;20.53;100.00
20017;BME280;10169;42.664;23.610;2023-05-23T09:12:19;95148.00;;;20.46;100.00
20017;BME280;10169;42.664;23.610;2023-05-23T09:14:21;95134.16;;;20.25;100.00
20017;BME280;10169;42.664;23.610;2023-05-23T09:16:21;95142.72;;;20.41;100.00
20017;BME280;10169;42.664;23.610;2023-05-23T09:18:23;95133.06;;;21.06;100.00
20017;BME280;10169;42.664;23.610;2023-05-23T09:20:24;95126.84;;;21.36;100.00
20017;BME280;10169;42.664;23.610;2023-05-23T09:22:24;95128.81;;;21.44;100.00
20017;BME280;10169;42.664;23.610;2023-05-23T09:24:36;95130.19;;;21.33;100.00
20017;BME280;10169;42.664;23.610;2023-05-23T09:26:37;95123.47;;;21.61;100.00
20017;BME280;10169;42.664;23.610;2023-05-23T09:28:38;95123.22;;;21.80;100.00
20017;BME280;10169;42.664;23.610;2023-05-23T09:30:39;95121.28;;;21.72;100.00
20017;BME280;10169;42.664;23.610;2023-05-23T09:32:39;95118.63;;;21.50;100.00
20017;BME280;10169;42.664;23.610;2023-05-23T09:34:41;95114.50;;;21.44;100.00
20017;BME280;10169;42.664;23.610;2023-05-23T09:36:42;95116.31;;;21.65;100.00
20017;BME280;10169;42.664;23.610;2023-05-23T09:38:44;95116.28;;;21.88;100.00
20017;BME280;10169;42.664;23.610;2023-05-23T09:40:45;95115.34;;;21.61;100.00
20017;BME280;10169;42.664;23.610;2023-05-23T09:42:46;95113.78;;;21.69;100.00
20017;BME280;10169;42.664;23.610;2023-05-23T09:44:47;95106.81;;;21.77;100.00
20017;BME280;10169;42.664;23.610;2023-05-23T09:46:49;95105.91;;;21.50;100.00
20017;BME280;10169;42.664;23.610;2023-05-23T09:48:51;95104.75;;;21.34;100.00
20017;BME280;10169;42.664;23.610;2023-05-23T09:50:52;95105.06;;;21.72;100.00
20017;BME280;10169;42.664;23.610;2023-05-23T09:52:53;95105.63;;;22.08;100.00
20017;BME280;10169;42.664;23.610;2023-05-23T09:54:53;95101.94;;;21.87;100.00
20017;BME280;10169;42.664;23.610;2023-05-23T09:56:54;95093.22;;;21.99;100.00
20017;BME280;10169;42.664;23.610;2023-05-23T09:58:55;95088.28;;;22.26;98.63
20017;BME280;10169;42.664;23.610;2023-05-23T10:00:57;95103.47;;;22.62;99.80
20017;BME280;10169;42.664;23.610;2023-05-23T10:05:02;95090.31;;;23.15;58.97
20017;BME280;10169;42.664;23.610;2023-05-23T10:07:05;95098.72;;;23.39;65.59
20017;BME280;10169;42.664;23.610;2023-05-23T10:09:07;95082.03;;;23.12;68.94
20017;BME280;10169;42.664;23.610;2023-05-23T10:11:24;95087.84;;;23.48;71.05
20017;BME280;10169;42.664;23.610;2023-05-23T10:13:29;95080.75;;;23.09;69.51
20017;BME280;10169;42.664;23.610;2023-05-23T10:15:34;95071.25;;;22.52;68.28
20017;BME280;10169;42.664;23.610;2023-05-23T10:17:38;95071.75;;;22.62;63.61
20017;BME280;10169;42.664;23.610;2023-05-23T10:21:55;95074.47;;;22.36;67.10
20017;BME280;10169;42.664;23.610;2023-05-23T10:23:58;95076.69;;;22.60;72.47
20017;BME280;10169;42.664;23.610;2023-05-23T10:25:59;95072.34;;;22.85;65.75
20017;BME280;10169;42.664;23.610;2023-05-23T10:28:00;95065.91;;;23.15;61.78
20017;BME280;10169;42.664;23.610;2023-05-23T10:30:01;95066.41;;;23.08;66.54
20017;BME280;10169;42.664;23.610;2023-05-23T10:32:01;95059.41;;;23.07;63.36
20017;BME280;10169;42.664;23.610;2023-05-23T10:34:07;95069.47;;;23.45;68.37